首页
METAR-TAF:

METAR-TAF

机场 :

沙希德·哈希米内贾德国际机场

馬什哈德, 伊朗

纬度: 36-16N, 经度: 059-38E, 海拔: 989米

当前天气观测

该预报发布于11分钟前的09:00 UTC
风速6节,风向南转南东
温度 23°C
湿度 16%
气压 1025 hPa
能见度10公里或以上
1500米以下无云,无积雨云

METAR: OIMM 170900Z 16006KT CAVOK 23/M04 Q1025 A3027

时间: 12:41 (09:11 UTC)

预报

该预报发布于3小时和41分钟前的05:30 UTC
预报有效从17日的 06点(UTC)到 18日的 12点(UTC)
风速8节,风向南转西南
能见度10公里或以上
1500米以下无云,无积雨云
短暂存在
从 17日的 09点(UTC)到 17日的 15点(UTC)
风速16节,风向

TAF: OIMM 170530Z 1706/1812 20008KT CAVOK TEMPO 1709/1715 08016KT

超过4000个机场的气象观测和天气预报(METAR&TAF报告)。

可查询的气象台以黄色和红色小点在地图上表示。

将鼠标移到小点上方,可查看气象台名称。

然后点击查看天气观测和预报。

如需切换地图:点击带黑十字的绿色按钮放大地图;点击带横线的绿色按钮缩小地图;或者点击绿色箭头查看邻近地区的地图。


METAR-TAF: